Time;durP1;ratioP1;P1;durP2;ratioP2;P2;SDS_P1;SDS_P2;PMS_P1;PMS_P2;Temp;Humidity;BMP_temperature;BMP_pressure;BME280_temperature;BME280_humidity;BME280_pressure;Samples;Min_cycle;Max_cycle;Signal;HPM_P1;HPM_P2
2022/11/26 00:00:13;;;;;;;115.60;68.07;;;;;;;2.16;80.80;100876.34;2215315;80;28706;-68
2022/11/26 00:03:17;;;;;;;125.15;68.37;;;;;;;2.23;80.88;100882.05;2223763;79;27752;-68
2022/11/26 00:06:33;;;;;;;123.92;67.90;;;;;;;2.31;80.97;100886.42;2224175;80;32962;-72
2022/11/26 00:09:35;;;;;;;115.25;63.35;;;;;;;2.37;81.16;100879.76;2221823;79;29398;-70
2022/11/26 00:12:37;;;;;;;116.95;64.40;;;;;;;2.46;81.20;100886.75;2220051;80;27697;-72
2022/11/26 00:18:42;;;;;;;109.45;61.53;;;;;;;2.60;81.30;100883.56;2186664;81;31070;-69
2022/11/26 00:21:44;;;;;;;110.52;63.65;;;;;;;2.68;81.43;100888.37;2186570;81;33142;-69
2022/11/26 00:24:45;;;;;;;111.50;63.83;;;;;;;2.78;81.54;100892.25;2186791;81;29297;-68
2022/11/26 00:28:00;;;;;;;111.25;61.98;;;;;;;2.84;81.59;100886.46;2186660;81;27817;-73
2022/11/26 00:31:16;;;;;;;105.83;59.05;;;;;;;2.94;81.68;100893.02;2094546;84;28705;-74
2022/11/26 00:37:31;;;;;;;92.65;52.93;;;;;;;3.13;81.85;100883.14;1978462;89;32981;-71
2022/11/26 00:40:34;;;;;;;96.57;53.13;;;;;;;3.21;81.85;100892.33;1977951;89;29378;-72
2022/11/26 00:43:36;;;;;;;91.60;51.65;;;;;;;3.26;81.94;100894.03;1978407;89;27978;-70
2022/11/26 00:46:40;;;;;;;88.27;50.78;;;;;;;3.34;82.01;100901.47;1978627;89;28649;-69
2022/11/26 00:49:44;;;;;;;80.12;47.38;;;;;;;3.42;82.07;100900.50;1947740;91;31168;-68
2022/11/26 00:52:48;;;;;;;84.85;49.83;;;;;;;3.49;82.09;100903.06;1978865;89;33729;-67
2022/11/26 00:55:52;;;;;;;89.97;49.10;;;;;;;3.58;82.13;100903.41;1997670;88;30447;-71
2022/11/26 00:58:53;;;;;;;59.30;33.63;;;;;;;3.66;82.19;100903.33;1987817;88;36823;-69
2022/11/26 01:01:55;;;;;;;79.55;46.88;;;;;;;3.74;82.19;100900.16;2009151;88;28643;-68
2022/11/26 01:04:56;;;;;;;82.05;45.70;;;;;;;3.80;82.23;100904.07;2008991;88;31814;-68
2022/11/26 01:08:01;;;;;;;86.47;46.80;;;;;;;3.89;82.25;100900.40;2008914;88;32929;-68
2022/11/26 01:11:08;;;;;;;80.47;47.15;;;;;;;3.95;82.24;100904.31;2035859;85;29393;-72
2022/11/26 01:14:16;;;;;;;80.60;45.92;;;;;;;4.03;82.23;100903.36;2078957;84;27817;-68
2022/11/26 01:17:18;;;;;;;76.33;43.08;;;;;;;4.10;82.23;100905.02;2107016;83;29470;-66
2022/11/26 01:20:28;;;;;;;77.37;45.25;;;;;;;4.15;82.17;100895.23;2107234;84;31033;-66
2022/11/26 01:26:40;;;;;;;82.67;42.38;;;;;;;4.27;82.20;100904.80;2052729;86;30008;-68
2022/11/26 01:29:41;;;;;;;89.22;43.25;;;;;;;4.34;82.19;100909.10;2052931;86;27764;-68
2022/11/26 01:32:44;;;;;;;76.95;43.45;;;;;;;4.39;82.17;100905.05;2054774;83;28633;-67
2022/11/26 01:35:45;;;;;;;84.97;44.35;;;;;;;4.43;82.14;100908.09;2122809;83;30994;-67
2022/11/26 01:38:47;;;;;;;81.97;45.33;;;;;;;4.46;82.09;100908.52;2122709;83;33728;-66
2022/11/26 01:42:25;;;;;;;79.20;45.08;;;;;;;4.50;82.14;100905.80;2122833;83;29538;-66
2022/11/26 01:45:27;;;;;;;77.75;42.90;;;;;;;4.56;82.10;100904.36;2122483;83;27845;-66
2022/11/26 01:48:32;;;;;;;76.17;42.40;;;;;;;4.61;82.14;100910.05;2122895;83;28705;-67
2022/11/26 01:51:33;;;;;;;74.10;42.27;;;;;;;4.67;82.13;100909.97;2122676;83;31006;-66
2022/11/26 01:54:37;;;;;;;84.45;44.77;;;;;;;4.70;82.15;100907.28;2122044;83;33811;-66
2022/11/26 01:57:38;;;;;;;76.42;44.03;;;;;;;4.73;82.12;100908.53;2122538;83;29333;-70
2022/11/26 02:00:40;;;;;;;80.12;42.15;;;;;;;4.76;82.08;100905.83;2122898;83;27867;-73
2022/11/26 02:04:08;;;;;;;79.92;44.00;;;;;;;4.80;82.10;100906.69;2122468;83;28719;-70
2022/11/26 02:07:10;;;;;;;74.85;42.78;;;;;;;4.83;82.08;100906.61;2122749;83;31844;-70
2022/11/26 02:10:13;;;;;;;79.45;42.75;;;;;;;4.88;82.15;100912.73;2113451;83;32955;-73
2022/11/26 02:13:14;;;;;;;72.42;43.65;;;;;;;4.92;82.20;100909.56;2103958;84;29463;-73
2022/11/26 02:16:27;;;;;;;77.53;42.73;;;;;;;4.94;82.15;100911.75;2103918;84;27828;-70
2022/11/26 02:19:53;;;;;;;79.70;44.77;;;;;;;4.96;82.14;100917.48;2103395;84;29548;-69
2022/11/26 02:23:09;;;;;;;78.55;43.70;;;;;;;4.99;82.21;100916.55;2101400;84;31391;-67
2022/11/26 02:26:30;;;;;;;71.57;42.90;;;;;;;5.03;82.30;100919.59;2098786;83;33123;-68
2022/11/26 02:30:06;;;;;;;73.72;41.30;;;;;;;5.07;82.32;100925.70;2132721;81;30305;-69
2022/11/26 02:33:21;;;;;;;67.27;40.25;;;;;;;5.10;82.36;100917.70;2104323;84;33603;-69
2022/11/26 02:36:31;;;;;;;69.47;40.03;;;;;;;5.11;82.40;100920.31;2103879;84;28800;-68
2022/11/26 02:39:32;;;;;;;73.52;42.17;;;;;;;5.14;82.41;100928.67;2077336;85;31844;-68
2022/11/26 02:42:35;;;;;;;67.72;41.25;;;;;;;5.16;82.41;100930.42;2077337;85;32928;-67
2022/11/26 02:45:39;;;;;;;68.02;41.40;;;;;;;5.19;82.48;100925.96;2077362;85;29483;-67
2022/11/26 02:48:44;;;;;;;76.77;42.23;;;;;;;5.21;82.47;100927.67;2077683;85;28380;-69
2022/11/26 02:51:53;;;;;;;74.43;41.43;;;;;;;5.22;82.42;100925.88;2077493;85;29514;-68
2022/11/26 02:54:55;;;;;;;71.15;41.42;;;;;;;5.24;82.50;100932.05;2077595;85;31868;-72
2022/11/26 02:57:57;;;;;;;69.58;41.25;;;;;;;5.25;82.56;100924.07;2064808;85;32975;-69
2022/11/26 03:01:02;;;;;;;67.80;41.42;;;;;;;5.27;82.48;100926.25;2060019;86;30103;-68
2022/11/26 03:04:08;;;;;;;70.37;41.68;;;;;;;5.30;82.48;100927.50;2062119;85;27752;-73
2022/11/26 03:07:13;;;;;;;71.17;40.85;;;;;;;5.32;82.48;100926.16;2063456;83;28876;-69
2022/11/26 03:10:14;;;;;;;69.47;39.83;;;;;;;5.31;82.45;100929.72;2159567;80;31809;-68
2022/11/26 03:13:16;;;;;;;73.02;41.42;;;;;;;5.32;82.47;100928.36;2189213;81;32977;-72
2022/11/26 03:16:17;;;;;;;72.58;40.70;;;;;;;5.35;82.55;100932.77;2189368;81;30109;-72
2022/11/26 03:19:19;;;;;;;75.85;43.98;;;;;;;5.37;82.45;100936.70;2189371;80;27660;-73
2022/11/26 03:22:20;;;;;;;81.75;45.20;;;;;;;5.36;82.54;100937.17;2189870;81;28629;-72
2022/11/26 03:25:21;;;;;;;82.90;45.95;;;;;;;5.37;82.47;100937.59;2191476;81;31086;-75
2022/11/26 03:28:23;;;;;;;95.20;49.55;;;;;;;5.39;82.58;100949.05;2191267;81;32968;-73
2022/11/26 03:31:24;;;;;;;83.87;47.25;;;;;;;5.42;82.64;100952.98;2191433;81;29359;-73
2022/11/26 03:34:26;;;;;;;100.47;50.28;;;;;;;5.45;82.65;100949.42;2191311;81;27650;-71
2022/11/26 03:37:27;;;;;;;93.72;48.63;;;;;;;5.47;82.69;100949.80;2189413;81;28606;-72
2022/11/26 03:40:28;;;;;;;107.35;57.88;;;;;;;5.49;82.71;100952.42;2189216;81;31022;-72
2022/11/26 03:43:29;;;;;;;111.47;59.30;;;;;;;5.53;82.65;100959.91;2189179;80;33904;-74
2022/11/26 03:46:31;;;;;;;113.45;61.33;;;;;;;5.54;82.71;100956.34;2189203;81;30146;-72
2022/11/26 03:49:32;;;;;;;108.17;59.27;;;;;;;5.55;82.65;100964.72;2189570;80;27745;-70
2022/11/26 03:52:33;;;;;;;116.82;61.00;;;;;;;5.56;82.63;100963.81;2190292;81;28686;-71
2022/11/26 03:55:34;;;;;;;113.03;59.20;;;;;;;5.56;82.63;100956.73;2191271;81;31783;-72
2022/11/26 03:58:36;;;;;;;109.52;58.15;;;;;;;5.57;82.65;100961.14;2191129;81;32903;-72
2022/11/26 04:01:37;;;;;;;104.90;58.50;;;;;;;5.58;82.67;100965.56;2191274;81;29288;-74
2022/11/26 04:04:38;;;;;;;103.97;57.00;;;;;;;5.59;82.71;100963.33;2191372;81;27716;-71
2022/11/26 04:07:40;;;;;;;105.67;57.40;;;;;;;5.60;82.67;100966.84;2190998;81;29493;-71
2022/11/26 04:10:41;;;;;;;98.50;55.78;;;;;;;5.59;82.58;100969.97;2190865;80;31104;-72
2022/11/26 04:13:42;;;;;;;93.20;50.80;;;;;;;5.57;82.62;100969.13;2191111;81;32979;-70
2022/11/26 04:16:43;;;;;;;86.20;50.33;;;;;;;5.60;82.72;100969.50;2191179;81;29364;-72
2022/11/26 04:19:44;;;;;;;93.17;51.30;;;;;;;5.62;82.75;100969.92;2191211;81;27693;-73
2022/11/26 04:22:46;;;;;;;86.42;49.38;;;;;;;5.62;82.75;100975.23;2190164;81;28586;-71
2022/11/26 04:25:47;;;;;;;90.62;49.73;;;;;;;5.62;82.71;100971.25;2189419;81;31049;-72
2022/11/26 04:28:49;;;;;;;86.97;48.38;;;;;;;5.65;82.73;100974.73;2189305;81;32979;-73
2022/11/26 04:31:50;;;;;;;84.83;48.08;;;;;;;5.64;82.76;100975.20;2189214;80;30159;-74
2022/11/26 04:34:51;;;;;;;82.35;49.15;;;;;;;5.66;82.69;100977.38;2189446;81;27687;-72
2022/11/26 04:37:53;;;;;;;83.35;48.25;;;;;;;5.67;82.72;100981.80;2189343;81;28628;-71
2022/11/26 04:40:54;;;;;;;84.87;45.90;;;;;;;5.68;82.82;100982.22;2189233;81;31810;-69
2022/11/26 04:43:55;;;;;;;83.52;47.62;;;;;;;5.70;82.81;100983.08;2188934;81;33170;-68
2022/11/26 04:46:56;;;;;;;80.40;44.77;;;;;;;5.70;82.85;100987.50;2189189;80;29322;-69
2022/11/26 04:49:58;;;;;;;80.83;45.30;;;;;;;5.72;82.90;100983.89;2189443;80;27794;-69
2022/11/26 04:52:59;;;;;;;76.70;42.65;;;;;;;5.73;82.86;100993.63;2189316;81;28650;-68
2022/11/26 04:56:00;;;;;;;81.15;45.17;;;;;;;5.74;82.95;100996.70;2189287;81;31060;-68
2022/11/26 04:59:01;;;;;;;81.28;43.45;;;;;;;5.76;82.94;101001.55;2189145;80;33712;-69
2022/11/26 05:02:02;;;;;;;77.37;43.90;;;;;;;5.77;83.00;101003.30;2189186;81;29304;-68
2022/11/26 05:05:04;;;;;;;75.05;44.53;;;;;;;5.78;82.99;101006.39;2189420;80;27839;-69
2022/11/26 05:08:06;;;;;;;72.80;41.88;;;;;;;5.80;82.99;101004.16;2189319;81;28672;-69
2022/11/26 05:11:07;;;;;;;77.08;43.63;;;;;;;5.80;83.00;101013.00;2185480;79;30971;-69
2022/11/26 05:14:08;;;;;;;84.52;45.28;;;;;;;5.83;83.01;101012.95;2181854;81;33853;-70
2022/11/26 05:17:10;;;;;;;78.42;43.83;;;;;;;5.84;83.02;101012.52;2181934;81;29363;-70
2022/11/26 05:20:13;;;;;;;71.15;43.30;;;;;;;5.84;83.07;101016.03;2181889;81;27709;-70
2022/11/26 05:23:14;;;;;;;75.37;45.30;;;;;;;5.86;83.09;101014.69;2178254;81;28674;-71
2022/11/26 05:26:16;;;;;;;74.90;43.23;;;;;;;5.85;83.09;101028.42;2177131;81;30999;-69
2022/11/26 05:29:17;;;;;;;68.17;40.23;;;;;;;5.87;83.16;101025.75;2177174;81;33008;-71
2022/11/26 05:32:18;;;;;;;66.60;36.70;;;;;;;5.87;83.17;101022.63;2177238;81;29322;-68
2022/11/26 05:35:19;;;;;;;61.60;36.05;;;;;;;5.89;83.29;101031.45;2177173;81;27740;-71
2022/11/26 05:38:21;;;;;;;62.25;36.60;;;;;;;5.91;83.31;101036.30;2177101;81;28611;-68
2022/11/26 05:41:22;;;;;;;65.47;36.38;;;;;;;5.92;83.35;101039.39;2177226;81;30440;-71
2022/11/26 05:44:24;;;;;;;60.00;35.05;;;;;;;5.94;83.40;101042.00;2176848;81;33832;-71
2022/11/26 05:47:25;;;;;;;59.90;34.35;;;;;;;5.95;83.46;101042.43;2177192;81;29392;-70
2022/11/26 05:50:26;;;;;;;58.68;33.08;;;;;;;5.98;83.51;101053.45;2177208;81;27612;-69
2022/11/26 05:53:29;;;;;;;60.63;34.90;;;;;;;5.98;83.48;101046.37;2219702;80;29468;-69
2022/11/26 05:56:30;;;;;;;59.08;34.25;;;;;;;6.01;83.55;101053.44;2219815;80;31016;-70
2022/11/26 05:59:32;;;;;;;64.03;34.53;;;;;;;6.03;83.57;101059.61;2219908;80;33077;-69
2022/11/26 06:02:33;;;;;;;62.38;34.53;;;;;;;6.03;83.54;101058.28;2220059;80;29322;-69
2022/11/26 06:05:34;;;;;;;61.25;34.73;;;;;;;6.01;83.45;101057.42;2220270;80;28197;-70
2022/11/26 06:08:36;;;;;;;57.70;34.23;;;;;;;6.03;83.50;101063.59;2220166;80;28613;-69
2022/11/26 06:11:37;;;;;;;61.92;37.15;;;;;;;6.03;83.56;101063.59;2216909;80;30977;-70
2022/11/26 06:14:38;;;;;;;68.87;36.35;;;;;;;6.04;83.58;101064.89;2214232;80;33017;-70
2022/11/26 06:17:40;;;;;;;60.90;36.85;;;;;;;6.04;83.54;101072.00;2214292;80;30123;-71
2022/11/26 06:20:41;;;;;;;63.98;36.35;;;;;;;6.03;83.55;101067.59;2214329;80;27831;-70
2022/11/26 06:23:42;;;;;;;64.87;38.53;;;;;;;6.04;83.64;101071.53;2214455;80;28702;-70
2022/11/26 06:26:43;;;;;;;61.55;38.02;;;;;;;6.07;83.67;101079.47;2214137;80;31023;-70
2022/11/26 06:29:44;;;;;;;60.55;38.15;;;;;;;6.08;83.70;101080.36;2214244;80;32934;-70
2022/11/26 06:32:46;;;;;;;66.50;38.67;;;;;;;6.11;83.69;101084.73;2214330;80;29444;-71
2022/11/26 06:35:47;;;;;;;68.42;39.42;;;;;;;6.10;83.66;101094.52;2214269;80;27703;-73
2022/11/26 06:38:48;;;;;;;64.92;40.12;;;;;;;6.11;83.68;101094.94;2214099;80;28703;-73
2022/11/26 06:41:49;;;;;;;67.20;41.65;;;;;;;6.13;83.70;101100.22;2214260;80;31025;-73
2022/11/26 06:44:51;;;;;;;76.37;42.35;;;;;;;6.14;83.77;101103.30;2214195;80;32933;-73
2022/11/26 06:47:52;;;;;;;74.03;43.48;;;;;;;6.15;83.75;101106.39;2214157;80;29311;-74
2022/11/26 06:50:53;;;;;;;69.72;42.17;;;;;;;6.16;83.69;101109.48;2214138;80;27784;-74
2022/11/26 06:53:54;;;;;;;71.60;40.50;;;;;;;6.16;83.76;101110.34;2214293;80;28657;-73
2022/11/26 06:56:55;;;;;;;69.25;41.10;;;;;;;6.18;83.88;101121.84;2214265;80;31848;-73
2022/11/26 06:59:57;;;;;;;66.12;39.85;;;;;;;6.20;83.84;101133.80;2214100;80;33090;-73
2022/11/26 07:02:58;;;;;;;67.95;37.88;;;;;;;6.21;83.86;101129.77;2213820;80;29475;-73
2022/11/26 07:05:59;;;;;;;64.50;39.10;;;;;;;6.22;83.82;101130.64;2214368;80;27714;-74
2022/11/26 07:09:06;;;;;;;65.40;37.30;;;;;;;6.23;83.83;101133.72;2214282;80;28624;-74
2022/11/26 07:12:07;;;;;;;63.33;37.55;;;;;;;6.26;83.89;101145.64;2213978;79;31005;-74
2022/11/26 07:15:10;;;;;;;64.45;38.38;;;;;;;6.26;83.90;101145.64;2214071;80;32979;-73
2022/11/26 07:18:11;;;;;;;69.95;39.10;;;;;;;6.29;83.95;101148.72;2214138;80;29392;-73
2022/11/26 07:21:12;;;;;;;64.80;38.02;;;;;;;6.29;83.86;101148.26;2213930;80;27657;-73
2022/11/26 07:24:15;;;;;;;62.03;36.58;;;;;;;6.31;84.01;101159.75;2214160;80;28637;-73
2022/11/26 07:27:16;;;;;;;59.67;36.30;;;;;;;6.34;84.05;101157.48;2214014;80;31829;-73
2022/11/26 07:30:17;;;;;;;63.83;36.40;;;;;;;6.36;84.01;101157.90;2214048;80;32935;-74
2022/11/26 07:33:19;;;;;;;62.98;35.73;;;;;;;6.41;84.13;101167.56;2213995;80;29354;-74
2022/11/26 07:36:26;;;;;;;70.50;38.85;;;;;;;6.43;84.17;101166.64;2214169;80;27645;-75
2022/11/26 07:39:28;;;;;;;58.28;35.05;;;;;;;6.47;84.14;101172.31;2213970;80;28732;-75
2022/11/26 07:42:31;;;;;;;61.25;37.23;;;;;;;6.49;84.16;101169.64;2213990;80;31061;-75
2022/11/26 07:45:36;;;;;;;59.53;35.20;;;;;;;6.54;84.20;101171.74;2214000;80;33059;-75
2022/11/26 07:48:39;;;;;;;61.05;38.75;;;;;;;6.56;84.18;101173.06;2214115;80;30424;-75
2022/11/26 07:51:40;;;;;;;64.60;36.63;;;;;;;6.59;84.13;101179.67;2203857;80;27609;-75
2022/11/26 07:54:41;;;;;;;57.62;34.50;;;;;;;6.61;84.30;101178.72;2188885;80;28702;-74
2022/11/26 07:57:42;;;;;;;55.38;32.42;;;;;;;6.66;84.29;101185.28;2189310;81;31775;-75
2022/11/26 08:00:44;;;;;;;58.70;33.98;;;;;;;6.71;84.32;101189.18;2189171;80;32927;-75
2022/11/26 08:03:50;;;;;;;52.85;32.17;;;;;;;6.76;84.45;101193.54;2189339;80;29313;-73
2022/11/26 08:06:52;;;;;;;53.45;33.98;;;;;;;6.83;84.53;101193.83;2189293;81;27615;-72
2022/11/26 08:09:53;;;;;;;57.25;34.78;;;;;;;6.90;84.48;101197.71;2189868;81;29719;-76
2022/11/26 08:12:55;;;;;;;56.65;34.38;;;;;;;6.97;84.59;101196.22;2183684;79;30994;-74
2022/11/26 08:15:56;;;;;;;50.80;32.50;;;;;;;7.05;84.61;101197.40;2181864;81;32994;-76
2022/11/26 08:19:01;;;;;;;56.70;33.58;;;;;;;7.15;84.78;101194.95;2181851;81;29319;-75
2022/11/26 08:22:03;;;;;;;;;;;;;;;7.20;84.56;101205.51;2184335;81;27658;-74
2022/11/26 08:25:07;;;;;;;56.33;33.67;;;;;;;7.26;84.61;101205.39;2181913;80;28608;-75
2022/11/26 08:28:09;;;;;;;49.97;34.20;;;;;;;7.36;84.85;101207.88;2155144;81;31234;-74
2022/11/26 08:31:13;;;;;;;47.35;29.37;;;;;;;7.45;84.72;101209.00;2181754;81;32932;-76
2022/11/26 08:34:16;;;;;;;47.33;29.10;;;;;;;7.51;84.74;101210.64;2181914;81;29341;-76
2022/11/26 08:37:17;;;;;;;43.85;28.17;;;;;;;7.58;84.75;101211.80;2181768;81;27801;-77
2022/11/26 08:40:19;;;;;;;40.12;26.15;;;;;;;7.65;84.81;101216.55;2181639;81;29456;-77
2022/11/26 08:43:21;;;;;;;35.28;23.90;;;;;;;7.70;84.65;101219.99;2181580;81;31841;-77
2022/11/26 08:46:24;;;;;;;35.63;24.47;;;;;;;7.76;84.70;101220.30;2181648;81;32966;-76
2022/11/26 08:49:29;;;;;;;31.07;20.82;;;;;;;7.80;84.60;101219.77;2181542;81;28983;-73
2022/11/26 08:52:30;;;;;;;34.00;21.83;;;;;;;7.86;84.80;101228.50;2180681;81;27682;-74
2022/11/26 08:55:31;;;;;;;28.17;20.32;;;;;;;7.91;84.67;101235.09;2176750;81;28857;-74
2022/11/26 08:58:35;;;;;;;32.60;20.23;;;;;;;7.95;84.61;101235.88;2177220;81;31628;-73
2022/11/26 09:01:36;;;;;;;30.40;19.80;;;;;;;7.97;84.49;101242.06;2176958;81;33000;-75
2022/11/26 09:04:38;;;;;;;26.73;18.95;;;;;;;7.99;84.45;101241.10;2177083;81;29928;-73
2022/11/26 09:07:39;;;;;;;29.90;18.70;;;;;;;8.00;84.34;101244.67;2176790;81;27688;-73
2022/11/26 09:10:40;;;;;;;28.25;19.77;;;;;;;8.00;84.41;101246.86;2177157;81;28635;-76
2022/11/26 09:13:42;;;;;;;28.85;19.45;;;;;;;8.03;84.42;101248.13;2176580;81;31066;-76
2022/11/26 09:16:44;;;;;;;24.82;16.23;;;;;;;8.09;84.57;101250.24;2189840;81;33928;-71
2022/11/26 09:19:45;;;;;;;21.87;15.45;;;;;;;8.14;84.51;101251.88;2191020;81;29362;-74
2022/11/26 09:22:47;;;;;;;22.93;14.23;;;;;;;8.21;84.68;101252.61;2191289;81;27681;-72
2022/11/26 09:25:49;;;;;;;18.65;13.85;;;;;;;8.28;84.63;101251.52;2191285;81;28702;-73
2022/11/26 09:28:51;;;;;;;18.32;12.70;;;;;;;8.35;84.51;101253.61;2191131;81;31011;-74
2022/11/26 09:31:52;;;;;;;20.90;13.60;;;;;;;8.41;84.40;101252.58;2191265;81;33063;-76
2022/11/26 09:34:54;;;;;;;14.10;10.78;;;;;;;8.43;84.29;101259.63;2191233;81;29243;-76
2022/11/26 09:37:58;;;;;;;15.13;11.18;;;;;;;8.44;84.20;101260.05;2191625;81;27628;-76
2022/11/26 09:41:34;;;;;;;17.05;11.18;;;;;;;8.47;84.12;101257.30;2167565;81;28891;-74
2022/11/26 09:44:55;;;;;;;;;;;;;;;8.50;84.12;101260.37;2193968;81;31880;-75
2022/11/26 09:47:58;;;;;;;13.22;10.05;;;;;;;8.51;83.98;101260.80;2191467;81;32987;-72
2022/11/26 09:51:07;;;;;;;16.15;11.45;;;;;;;8.56;84.10;101261.56;2116440;82;29376;-74
2022/11/26 09:54:19;;;;;;;15.28;10.38;;;;;;;8.61;84.11;101259.63;2150681;82;27646;-74
2022/11/26 09:57:29;;;;;;;7.78;5.67;;;;;;;8.73;84.33;101265.11;2150730;82;28736;-72
2022/11/26 10:00:41;;;;;;;8.00;5.95;;;;;;;8.85;84.14;101263.06;2150698;82;31728;-74
2022/11/26 10:03:46;;;;;;;7.92;6.35;;;;;;;8.88;83.82;101265.18;2150058;82;28223;-72
2022/11/26 10:07:10;;;;;;;7.45;5.83;;;;;;;8.86;83.31;101272.36;2150125;82;27866;-71
2022/11/26 10:10:22;;;;;;;6.53;5.83;;;;;;;8.85;83.26;101278.62;2149988;82;27757;-73
2022/11/26 10:14:12;;;;;;;8.20;5.83;;;;;;;8.77;82.60;101281.97;2150580;82;28670;-78
2022/11/26 10:17:31;;;;;;;7.80;5.37;;;;;;;8.71;82.57;101285.65;2034721;85;31891;-75
2022/11/26 10:21:19;;;;;;;9.63;7.10;;;;;;;8.65;82.62;101286.69;2035181;87;33019;-78
2022/11/26 10:24:34;;;;;;;10.13;7.70;;;;;;;8.58;82.23;101288.22;2034715;87;29358;-72
2022/11/26 10:27:35;;;;;;;11.78;8.20;;;;;;;8.55;82.69;101291.86;2035243;87;27707;-72
2022/11/26 10:30:36;;;;;;;13.35;8.58;;;;;;;8.60;82.41;101299.30;2035059;87;28503;-78
2022/11/26 10:33:49;;;;;;;13.55;8.88;;;;;;;8.56;82.17;101300.29;2034931;87;31207;-78
2022/11/26 10:36:51;;;;;;;13.20;9.70;;;;;;;8.52;81.92;101306.61;2034568;87;32515;-78
2022/11/26 10:40:01;;;;;;;13.35;10.60;;;;;;;8.47;82.12;101306.70;2035006;87;29416;-79
2022/11/26 10:43:19;;;;;;;13.83;10.32;;;;;;;8.42;81.80;101302.40;2026253;87;27740;-72
2022/11/26 10:46:34;;;;;;;12.85;9.98;;;;;;;8.35;81.69;101307.02;2039256;84;28731;-74
2022/11/26 10:49:36;;;;;;;17.40;11.43;;;;;;;8.28;81.73;101307.59;2107534;84;31045;-73
2022/11/26 10:52:38;;;;;;;21.27;14.23;;;;;;;8.24;81.71;101319.72;2131239;80;33782;-76
2022/11/26 10:55:40;;;;;;;20.80;13.18;;;;;;;8.14;81.31;101318.61;2219948;80;30270;-73
2022/11/26 10:58:43;;;;;;;16.62;11.65;;;;;;;8.03;81.39;101316.18;2195507;80;27636;-76
2022/11/26 11:01:44;;;;;;;17.60;12.73;;;;;;;7.97;81.37;101319.45;2219930;80;28625;-77
2022/11/26 11:04:55;;;;;;;20.32;14.00;;;;;;;7.88;81.38;101328.53;2195669;80;31811;-74
2022/11/26 11:07:56;;;;;;;22.60;14.65;;;;;;;7.83;81.48;101331.30;2219715;80;33009;-73
2022/11/26 11:11:03;;;;;;;25.25;16.00;;;;;;;7.80;81.47;101323.80;2220089;80;30091;-75
2022/11/26 11:14:10;;;;;;;25.77;17.25;;;;;;;7.73;81.16;101330.62;2219978;80;27689;-74
2022/11/26 11:17:33;;;;;;;21.90;16.27;;;;;;;7.68;81.32;101334.30;2194221;80;29475;-77
2022/11/26 11:20:37;;;;;;;30.85;22.07;;;;;;;7.62;81.16;101330.41;2220052;80;31053;-73
2022/11/26 11:23:39;;;;;;;32.33;23.50;;;;;;;7.56;81.09;101334.09;2224254;80;33033;-77
2022/11/26 11:26:49;;;;;;;35.25;25.17;;;;;;;7.47;80.76;101339.59;2225264;80;29311;-73
2022/11/26 11:29:51;;;;;;;32.98;23.92;;;;;;;7.34;80.90;101345.17;2225507;79;27607;-75
2022/11/26 11:32:59;;;;;;;33.95;25.00;;;;;;;7.28;81.05;101350.64;2181849;81;29400;-69
2022/11/26 11:36:18;;;;;;;40.55;27.07;;;;;;;7.27;81.28;101351.55;2180828;81;31009;-74
2022/11/26 11:39:32;;;;;;;40.00;28.65;;;;;;;7.20;81.22;101352.09;2181818;81;33001;-74
2022/11/26 11:42:33;;;;;;;42.38;29.63;;;;;;;7.14;81.03;101356.22;2181879;81;29344;-72
2022/11/26 11:46:14;;;;;;;43.92;30.27;;;;;;;7.08;81.32;101355.87;2182110;81;27636;-75
2022/11/26 11:49:35;;;;;;;47.85;31.23;;;;;;;7.07;81.47;101354.55;2181085;81;28864;-72
2022/11/26 11:53:09;;;;;;;46.83;31.70;;;;;;;7.04;81.48;101363.49;2179521;81;31042;-73
2022/11/26 11:56:34;;;;;;;47.08;32.73;;;;;;;7.06;81.59;101365.68;2102444;84;32962;-73
2022/11/26 12:00:13;;;;;;;47.62;30.97;;;;;;;7.07;81.58;101367.88;2102484;84;30085;-71
2022/11/26 12:03:39;;;;;;;46.42;31.60;;;;;;;7.09;81.60;101362.97;2099201;83;27696;-76
2022/11/26 12:07:23;;;;;;;49.27;33.88;;;;;;;7.14;81.66;101372.20;2102566;84;28666;-71
2022/11/26 12:10:39;;;;;;;41.88;30.62;;;;;;;7.22;82.07;101370.73;2060545;86;31049;-68
2022/11/26 12:14:04;;;;;;;44.25;30.48;;;;;;;7.32;81.93;101372.78;2102253;84;33720;-74
2022/11/26 12:17:36;;;;;;;43.15;30.45;;;;;;;7.36;81.95;101374.48;2060464;86;29318;-74
2022/11/26 12:20:43;;;;;;;41.13;29.18;;;;;;;7.41;81.71;101377.48;2069442;86;28276;-74
2022/11/26 12:24:09;;;;;;;45.80;29.75;;;;;;;7.46;81.75;101378.72;2069300;86;29495;-75
2022/11/26 12:27:33;;;;;;;50.83;34.15;;;;;;;7.51;81.61;101376.85;2069802;86;31047;-72
2022/11/26 12:30:45;;;;;;;46.45;31.68;;;;;;;7.51;81.61;101376.85;2063512;85;33212;-71
2022/11/26 12:33:57;;;;;;;45.80;30.77;;;;;;;7.56;81.65;101379.42;2079623;85;29389;-74
2022/11/26 12:37:16;;;;;;;45.08;31.23;;;;;;;7.63;81.83;101385.04;2079496;85;27756;-74
2022/11/26 12:40:51;;;;;;;47.43;29.23;;;;;;;7.70;81.85;101384.46;2079753;85;29426;-70
2022/11/26 12:44:17;;;;;;;49.87;33.67;;;;;;;7.77;81.77;101376.77;2080050;85;31204;-75
2022/11/26 12:47:27;;;;;;;40.80;29.27;;;;;;;7.84;81.62;101376.19;2079745;85;33030;-72
2022/11/26 12:50:38;;;;;;;39.08;28.40;;;;;;;7.90;81.73;101379.60;2077782;85;30069;-73
2022/11/26 12:54:06;;;;;;;42.90;30.95;;;;;;;7.95;81.66;101375.97;2077949;85;27752;-74
2022/11/26 12:57:24;;;;;;;47.48;34.38;;;;;;;8.00;81.57;101374.09;2049766;85;28296;-75
2022/11/26 13:00:30;;;;;;;42.20;30.50;;;;;;;8.03;81.39;101379.33;2084923;85;31024;-74
2022/11/26 13:03:33;;;;;;;43.87;33.48;;;;;;;8.06;81.35;101383.27;2061624;85;32389;-77
2022/11/26 13:06:54;;;;;;;42.20;31.42;;;;;;;8.07;81.19;101383.70;2081582;85;30096;-75
2022/11/26 13:10:10;;;;;;;40.03;29.00;;;;;;;8.07;81.13;101389.03;2046129;87;27651;-75
2022/11/26 13:13:43;;;;;;;38.42;28.25;;;;;;;8.03;81.01;101390.91;2046735;87;28689;-70
2022/11/26 13:17:06;;;;;;;41.23;29.27;;;;;;;8.06;81.09;101393.95;2011798;87;31227;-71
2022/11/26 13:20:42;;;;;;;45.23;30.15;;;;;;;8.06;81.13;101395.28;2011961;88;33131;-70
2022/11/26 13:24:10;;;;;;;43.50;29.05;;;;;;;8.01;80.76;101405.20;2012375;88;29352;-74
2022/11/26 13:27:44;;;;;;;47.83;31.17;;;;;;;7.96;80.83;101403.08;2031430;85;27681;-72
2022/11/26 13:31:20;;;;;;;58.08;34.05;;;;;;;7.93;80.78;101406.70;2096287;84;28673;-71
2022/11/26 13:34:45;;;;;;;59.38;34.23;;;;;;;7.90;80.79;101417.42;2114479;84;31103;-70
2022/11/26 13:38:30;;;;;;;51.75;30.62;;;;;;;7.88;80.89;101416.10;2113302;83;33762;-70
2022/11/26 13:42:21;;;;;;;39.42;26.87;;;;;;;7.85;80.80;101424.20;2114287;84;29349;-71
2022/11/26 13:46:02;;;;;;;35.20;25.35;;;;;;;7.80;80.69;101425.17;2114434;84;28228;-69
2022/11/26 13:49:24;;;;;;;40.30;28.50;;;;;;;7.73;80.73;101432.42;2111953;84;29494;-74
2022/11/26 13:52:50;;;;;;;39.00;27.05;;;;;;;7.72;80.87;101431.55;2142257;80;31285;-69
2022/11/26 13:56:00;;;;;;;35.78;24.72;;;;;;;7.73;80.92;101437.75;2219942;80;33768;-73
2022/11/26 13:59:18;;;;;;;32.55;24.45;;;;;;;7.72;80.75;101430.66;2219891;80;29296;-71
2022/11/26 14:02:41;;;;;;;33.08;23.62;;;;;;;7.69;80.76;101432.08;2219950;80;27704;-70
2022/11/26 14:05:56;;;;;;;38.08;26.12;;;;;;;7.65;80.74;101433.90;2220009;80;29335;-72
2022/11/26 14:08:57;;;;;;;38.98;27.75;;;;;;;7.64;80.80;101443.27;2219836;80;32791;-69
2022/11/26 14:11:59;;;;;;;70.92;41.20;;;;;;;7.62;80.82;101444.62;2219847;80;33815;-72
2022/11/26 14:15:00;;;;;;;41.40;29.37;;;;;;;7.62;80.87;101447.28;2219933;80;29309;-71
2022/11/26 14:18:01;;;;;;;42.73;29.10;;;;;;;7.57;80.70;101449.18;2215486;80;27717;-69
2022/11/26 14:21:12;;;;;;;40.23;27.85;;;;;;;7.53;80.75;101452.34;2189884;81;28584;-71
2022/11/26 14:24:15;;;;;;;34.92;24.60;;;;;;;7.52;80.76;101457.27;2191650;81;31024;-70
2022/11/26 14:27:25;;;;;;;33.63;24.40;;;;;;;7.52;80.71;101458.61;2179881;81;33944;-74
2022/11/26 14:30:27;;;;;;;38.92;26.57;;;;;;;7.51;80.68;101453.28;2191365;81;29355;-71